createdAt,value
2023-01-29T00:00:24.095Z,101681.35
2023-01-29T00:03:17.112Z,101679.75
2023-01-29T00:05:49.566Z,101681.13
2023-01-29T00:08:23.699Z,101676.98
2023-01-29T00:11:01.536Z,101669.30
2023-01-29T00:13:37.085Z,101645.65
2023-01-29T00:16:10.901Z,101648.85
2023-01-29T00:18:44.595Z,101656.36
2023-01-29T00:21:20.110Z,101650.98
2023-01-29T00:23:55.559Z,101639.06
2023-01-29T00:26:28.614Z,101636.98
2023-01-29T00:29:02.761Z,101632.57
2023-01-29T00:31:35.356Z,101628.33
2023-01-29T00:34:08.884Z,101620.72
2023-01-29T00:36:41.473Z,101618.86
2023-01-29T00:39:14.126Z,101619.30
2023-01-29T00:42:04.147Z,101619.29
2023-01-29T00:44:57.642Z,101623.93
2023-01-29T00:47:34.462Z,101617.91
2023-01-29T00:50:09.747Z,101610.56
2023-01-29T00:52:43.026Z,101608.80
2023-01-29T00:55:15.943Z,101607.33
2023-01-29T00:57:48.786Z,101616.06
2023-01-29T01:00:21.959Z,101613.09
2023-01-29T01:03:09.709Z,101614.08
2023-01-29T01:05:45.895Z,101606.53
2023-01-29T01:08:36.872Z,101612.02
2023-01-29T01:11:09.750Z,101617.19
2023-01-29T01:13:42.373Z,101621.34
2023-01-29T01:16:16.625Z,101620.56
2023-01-29T01:18:49.552Z,101624.52
2023-01-29T01:21:23.799Z,101620.86
2023-01-29T01:23:56.222Z,101615.19
2023-01-29T01:26:29.010Z,101592.66
2023-01-29T01:29:01.635Z,101608.55
2023-01-29T01:31:34.119Z,101613.52
2023-01-29T01:34:07.151Z,101604.83
2023-01-29T01:36:39.791Z,101598.80
2023-01-29T01:39:12.210Z,101585.19
2023-01-29T01:41:44.641Z,101604.58
2023-01-29T01:44:47.395Z,101605.10
2023-01-29T01:47:21.747Z,101613.31
2023-01-29T01:49:53.551Z,101610.02
2023-01-29T01:52:26.253Z,101602.58
2023-01-29T01:55:01.177Z,101599.79
2023-01-29T01:57:34.303Z,101605.61
2023-01-29T02:00:11.611Z,101600.73
2023-01-29T02:03:06.001Z,101600.12
2023-01-29T02:05:58.449Z,101602.27
2023-01-29T02:08:56.888Z,101593.72
2023-01-29T02:11:29.328Z,101587.62
2023-01-29T02:14:02.339Z,101595.98
2023-01-29T02:16:37.181Z,101597.86
2023-01-29T02:19:18.231Z,101594.73
2023-01-29T02:22:17.171Z,101589.85
2023-01-29T02:25:10.067Z,101590.86
2023-01-29T02:28:15.845Z,101591.46
2023-01-29T02:30:58.300Z,101593.52
2023-01-29T02:33:40.963Z,101589.84
2023-01-29T02:36:21.133Z,101594.99
2023-01-29T02:39:03.006Z,101591.14
2023-01-29T02:41:43.109Z,101577.59
2023-01-29T02:44:23.253Z,101579.23
2023-01-29T02:47:03.341Z,101585.04
2023-01-29T02:49:44.239Z,101586.27
2023-01-29T02:52:20.563Z,101559.19
2023-01-29T02:54:59.944Z,101574.36
2023-01-29T02:57:36.653Z,101582.66
2023-01-29T03:00:14.279Z,101587.69
2023-01-29T03:02:53.624Z,101586.65
2023-01-29T03:05:32.741Z,101580.77
2023-01-29T03:08:12.429Z,101573.88
2023-01-29T03:10:52.493Z,101572.11
2023-01-29T03:13:34.109Z,101566.95
2023-01-29T03:16:12.744Z,101568.69
2023-01-29T03:18:53.182Z,101570.70
2023-01-29T03:21:47.658Z,101572.45
2023-01-29T03:24:43.577Z,101560.56
2023-01-29T03:27:37.842Z,101560.13
2023-01-29T03:30:32.819Z,101552.91
2023-01-29T03:33:19.618Z,101554.79
2023-01-29T03:36:00.923Z,101548.70
2023-01-29T03:38:33.954Z,101545.77
2023-01-29T03:41:12.110Z,101539.84
2023-01-29T03:43:54.725Z,101534.81
2023-01-29T03:46:32.225Z,101525.69
2023-01-29T03:49:13.521Z,101524.04
2023-01-29T03:51:58.985Z,101519.20
2023-01-29T03:54:41.856Z,101525.25
2023-01-29T03:57:20.963Z,101522.30
2023-01-29T04:00:01.848Z,101510.04
2023-01-29T04:03:02.834Z,101508.06
2023-01-29T04:05:41.644Z,101513.81
2023-01-29T04:08:30.313Z,101513.73
2023-01-29T04:11:12.755Z,101505.25
2023-01-29T04:13:46.956Z,101497.27
2023-01-29T04:16:26.707Z,101491.27
2023-01-29T04:19:15.005Z,101496.41
2023-01-29T04:21:50.373Z,101497.15
2023-01-29T04:24:22.904Z,101470.05
2023-01-29T04:27:05.441Z,101466.98
2023-01-29T04:29:48.939Z,101481.37
2023-01-29T04:32:28.431Z,101474.80
2023-01-29T04:35:19.408Z,101470.65
2023-01-29T04:38:02.693Z,101475.33
2023-01-29T04:40:44.431Z,101468.36
2023-01-29T04:43:23.339Z,101469.30
2023-01-29T04:46:10.379Z,101445.79
2023-01-29T04:48:54.112Z,101457.34
2023-01-29T04:51:36.117Z,101452.11
2023-01-29T04:54:16.139Z,101431.09
2023-01-29T04:56:56.937Z,101443.52
2023-01-29T04:59:33.946Z,101438.41
2023-01-29T05:02:09.904Z,101441.13
2023-01-29T05:04:46.064Z,101446.03
2023-01-29T05:07:21.243Z,101450.17
2023-01-29T05:09:53.807Z,101452.52
2023-01-29T05:12:30.653Z,101449.00
2023-01-29T05:15:06.369Z,101440.31
2023-01-29T05:17:38.883Z,101439.34
2023-01-29T05:20:14.577Z,101430.61
2023-01-29T05:22:48.264Z,101423.11
2023-01-29T05:25:25.926Z,101417.35
2023-01-29T05:28:11.902Z,101429.56
2023-01-29T05:30:46.528Z,101434.52
2023-01-29T05:33:21.436Z,101440.72
2023-01-29T05:35:54.142Z,101434.25
2023-01-29T05:38:27.026Z,101430.98
2023-01-29T05:41:01.154Z,101427.23
2023-01-29T05:43:33.828Z,101422.64
2023-01-29T05:46:07.526Z,101427.83
2023-01-29T05:48:40.002Z,101437.13
2023-01-29T05:51:12.311Z,101443.08
2023-01-29T05:53:44.803Z,101429.21
2023-01-29T05:56:17.288Z,101450.43
2023-01-29T05:58:49.865Z,101450.67
2023-01-29T06:01:24.773Z,101443.41
2023-01-29T06:03:57.141Z,101440.98
2023-01-29T06:06:29.798Z,101439.01
2023-01-29T06:09:02.709Z,101446.42
2023-01-29T06:11:37.545Z,101456.02
2023-01-29T06:14:10.442Z,101466.19
2023-01-29T06:16:42.775Z,101465.90
2023-01-29T06:19:15.295Z,101462.58
2023-01-29T06:21:55.228Z,101463.48
2023-01-29T06:24:27.737Z,101462.88
2023-01-29T06:27:00.184Z,101454.36
2023-01-29T06:29:32.734Z,101457.50
2023-01-29T06:32:05.986Z,101440.94
2023-01-29T06:34:38.525Z,101455.67
2023-01-29T06:37:11.028Z,101466.23
2023-01-29T06:39:43.645Z,101480.86
2023-01-29T06:42:27.948Z,101473.64
2023-01-29T06:45:01.049Z,101469.09
2023-01-29T06:47:33.593Z,101469.94
2023-01-29T06:50:07.115Z,101479.67
2023-01-29T06:52:39.475Z,101459.11
2023-01-29T06:55:12.970Z,101471.38
2023-01-29T06:57:46.577Z,101464.81
2023-01-29T07:00:20.702Z,101469.99
2023-01-29T07:02:53.427Z,101463.10
2023-01-29T07:05:26.019Z,101458.23
2023-01-29T07:07:58.711Z,101451.40
2023-01-29T07:10:31.473Z,101451.29
2023-01-29T07:13:03.782Z,101450.43
2023-01-29T07:15:37.317Z,101444.64
2023-01-29T07:18:13.091Z,101443.23
2023-01-29T07:20:45.954Z,101445.02
2023-01-29T07:23:18.710Z,101436.31
2023-01-29T07:25:51.301Z,101442.14
2023-01-29T07:28:23.617Z,101433.94
2023-01-29T07:31:00.504Z,101427.58
2023-01-29T07:33:33.481Z,101426.01
2023-01-29T07:36:10.906Z,101423.02
2023-01-29T07:38:43.657Z,101421.35
2023-01-29T07:41:16.438Z,101421.13
2023-01-29T07:43:50.633Z,101420.17
2023-01-29T07:46:23.022Z,101403.38
2023-01-29T07:48:55.400Z,101417.64
2023-01-29T07:51:27.839Z,101412.88
2023-01-29T07:54:00.388Z,101402.09
2023-01-29T07:56:33.107Z,101431.31
2023-01-29T07:59:05.593Z,101415.58
2023-01-29T08:01:38.425Z,101439.39
2023-01-29T08:04:10.998Z,101443.32
2023-01-29T08:06:43.427Z,101450.10
2023-01-29T08:09:16.265Z,101450.70
2023-01-29T08:11:49.419Z,101455.67
2023-01-29T08:14:22.128Z,101452.02
2023-01-29T08:16:54.432Z,101451.82
2023-01-29T08:19:26.878Z,101451.54
2023-01-29T08:21:59.508Z,101452.18
2023-01-29T08:24:47.422Z,101455.08
2023-01-29T08:27:25.444Z,101444.91
2023-01-29T08:29:57.816Z,101426.71
2023-01-29T08:32:30.095Z,101444.11
2023-01-29T08:35:02.639Z,101447.85
2023-01-29T08:37:34.939Z,101440.53
2023-01-29T08:40:11.181Z,101433.63
2023-01-29T08:42:43.904Z,101429.02
2023-01-29T08:45:16.921Z,101414.67
2023-01-29T08:47:51.095Z,101410.34
2023-01-29T08:50:23.552Z,101402.06
2023-01-29T08:53:00.636Z,101396.44
2023-01-29T08:55:33.096Z,101398.11
2023-01-29T08:58:06.763Z,101405.86
2023-01-29T09:00:40.940Z,101402.95
2023-01-29T09:03:13.608Z,101382.90
2023-01-29T09:05:46.901Z,101404.75
2023-01-29T09:08:19.624Z,101406.80
2023-01-29T09:10:52.522Z,101400.88
2023-01-29T09:13:25.784Z,101398.91
2023-01-29T09:16:02.262Z,101404.65
2023-01-29T09:18:34.992Z,101405.30
2023-01-29T09:21:09.487Z,101409.85
2023-01-29T09:23:40.398Z,101408.34
2023-01-29T09:26:12.891Z,101404.41
2023-01-29T09:28:46.317Z,101404.34
2023-01-29T09:31:19.302Z,101401.88
2023-01-29T09:33:52.896Z,101392.71
2023-01-29T09:36:25.543Z,101394.68
2023-01-29T09:38:58.602Z,101405.19
2023-01-29T09:41:44.526Z,101406.71
2023-01-29T09:44:25.403Z,101408.04
2023-01-29T09:47:00.348Z,101403.20
2023-01-29T09:49:37.952Z,101399.39
2023-01-29T09:52:18.690Z,101398.86
2023-01-29T09:55:00.630Z,101397.09
2023-01-29T09:57:47.715Z,101405.08
2023-01-29T10:00:25.728Z,101400.14
2023-01-29T10:03:17.873Z,101397.35
2023-01-29T10:06:13.571Z,101397.95
2023-01-29T10:09:08.994Z,101395.32
2023-01-29T10:11:46.943Z,101385.24
2023-01-29T10:14:29.173Z,101367.38
2023-01-29T10:17:15.181Z,101377.27
2023-01-29T10:20:04.129Z,101373.67
2023-01-29T10:23:24.248Z,101365.14
2023-01-29T10:26:45.866Z,101363.80
2023-01-29T10:37:41.801Z,101343.00
2023-01-29T10:40:24.649Z,101337.73
2023-01-29T10:43:07.485Z,101334.69
2023-01-29T10:45:48.461Z,101333.81
2023-01-29T10:48:47.091Z,101334.77
2023-01-29T10:51:42.570Z,101313.51
2023-01-29T10:54:34.011Z,101325.11
2023-01-29T10:57:20.480Z,101316.05
2023-01-29T11:00:07.932Z,101301.46
2023-01-29T11:02:48.518Z,101306.69
2023-01-29T11:05:27.950Z,101302.64
2023-01-29T11:08:10.464Z,101305.80
2023-01-29T11:10:49.370Z,101299.77
2023-01-29T11:13:24.957Z,101280.88
2023-01-29T11:15:59.917Z,101295.23
2023-01-29T11:18:52.015Z,101301.50
2023-01-29T11:21:25.661Z,101308.05
2023-01-29T11:24:13.219Z,101305.88
2023-01-29T11:26:48.319Z,101286.61
2023-01-29T11:29:48.826Z,101286.90
2023-01-29T11:32:33.046Z,101277.23
2023-01-29T11:35:23.003Z,101272.66
2023-01-29T11:38:10.589Z,101279.52
2023-01-29T11:40:46.108Z,101270.70
2023-01-29T11:43:31.047Z,101256.92
2023-01-29T11:46:18.039Z,101247.69
2023-01-29T11:48:59.384Z,101245.73
2023-01-29T11:51:40.204Z,101235.30
2023-01-29T11:54:20.728Z,101206.56
2023-01-29T11:56:57.278Z,101224.41
2023-01-29T11:59:39.811Z,101224.77
2023-01-29T12:02:26.766Z,101226.61
2023-01-29T12:05:25.772Z,101228.61
2023-01-29T12:08:02.501Z,101216.19
2023-01-29T12:10:38.688Z,101206.37
2023-01-29T12:13:27.536Z,101175.45
2023-01-29T12:16:22.500Z,101207.33
2023-01-29T12:19:03.149Z,101201.48
2023-01-29T12:21:45.011Z,101207.41
2023-01-29T12:24:31.503Z,101207.09
2023-01-29T12:27:15.183Z,101203.78
2023-01-29T12:29:50.803Z,101195.52
2023-01-29T12:32:33.750Z,101195.67
2023-01-29T12:35:13.580Z,101197.30
2023-01-29T12:37:56.518Z,101196.73
2023-01-29T12:40:35.101Z,101195.33
2023-01-29T12:43:15.649Z,101177.83
2023-01-29T12:45:54.559Z,101182.63
2023-01-29T12:48:34.348Z,101180.88
2023-01-29T12:51:12.580Z,101179.42
2023-01-29T12:53:49.774Z,101175.10
2023-01-29T12:56:32.608Z,101176.23
2023-01-29T12:59:15.957Z,101172.04
2023-01-29T13:01:55.517Z,101170.15
2023-01-29T13:04:40.617Z,101173.94
2023-01-29T13:07:19.005Z,101160.55
2023-01-29T13:09:57.139Z,101171.19
2023-01-29T13:12:30.601Z,101147.73
2023-01-29T13:15:10.621Z,101161.63
2023-01-29T13:17:48.798Z,101149.73
2023-01-29T13:20:27.471Z,101142.67
2023-01-29T13:23:07.270Z,101135.20
2023-01-29T13:25:39.860Z,101138.45
2023-01-29T13:28:20.926Z,101133.52
2023-01-29T13:31:14.530Z,101138.48
2023-01-29T13:33:58.467Z,101136.12
2023-01-29T13:36:33.095Z,101143.73
2023-01-29T13:39:09.713Z,101145.48
2023-01-29T13:41:44.517Z,101144.55
2023-01-29T13:44:26.136Z,101135.73
2023-01-29T13:47:01.134Z,101145.26
2023-01-29T13:49:38.488Z,101148.71
2023-01-29T13:52:36.671Z,101141.13
2023-01-29T13:55:24.005Z,101130.06
2023-01-29T13:57:58.356Z,101128.48
2023-01-29T14:01:01.315Z,101131.68
2023-01-29T14:04:09.960Z,101126.89
2023-01-29T14:06:53.750Z,101125.70
2023-01-29T14:09:56.516Z,101125.35
2023-01-29T14:12:43.440Z,101121.60
2023-01-29T14:15:39.385Z,101117.58
2023-01-29T14:18:21.663Z,101118.78
2023-01-29T14:21:06.715Z,101122.77
2023-01-29T14:23:47.079Z,101122.20
2023-01-29T14:26:28.307Z,101122.52
2023-01-29T14:29:05.609Z,101111.89
2023-01-29T14:31:44.865Z,101106.86
2023-01-29T14:34:23.412Z,101104.75
2023-01-29T14:36:57.879Z,101109.61
2023-01-29T14:39:38.244Z,101114.73
2023-01-29T14:42:23.975Z,101114.40
2023-01-29T14:45:08.951Z,101111.73
2023-01-29T14:48:18.582Z,101104.73
2023-01-29T14:51:08.421Z,101100.73
2023-01-29T14:53:56.196Z,101098.36
2023-01-29T14:56:34.576Z,101091.77
2023-01-29T14:59:18.253Z,101089.27
2023-01-29T15:01:56.524Z,101093.67
2023-01-29T15:04:34.145Z,101091.65
2023-01-29T15:07:16.762Z,101087.48
2023-01-29T15:09:57.299Z,101079.81
2023-01-29T15:12:40.508Z,101080.84
2023-01-29T15:15:27.461Z,101077.54
2023-01-29T15:18:05.055Z,101073.58
2023-01-29T15:20:39.302Z,101069.26
2023-01-29T15:23:29.031Z,101065.98
2023-01-29T15:26:03.433Z,101063.59
2023-01-29T15:28:36.822Z,101063.98
2023-01-29T15:31:17.645Z,101060.69
2023-01-29T15:33:53.969Z,101061.88
2023-01-29T15:36:29.453Z,101057.01
2023-01-29T15:39:20.265Z,101059.32
2023-01-29T15:42:06.007Z,101055.11
2023-01-29T15:44:45.365Z,101055.94
2023-01-29T15:47:18.485Z,101054.29
2023-01-29T15:49:52.193Z,101056.30
2023-01-29T15:52:28.635Z,101044.98
2023-01-29T15:55:07.022Z,101060.40
2023-01-29T15:57:43.698Z,101057.05
2023-01-29T16:00:27.351Z,101056.64
2023-01-29T16:03:01.625Z,101058.42
2023-01-29T16:05:35.319Z,101054.86
2023-01-29T16:08:09.612Z,101054.08
2023-01-29T16:10:42.372Z,101048.42
2023-01-29T16:13:23.387Z,101044.48
2023-01-29T16:16:01.415Z,101033.73
2023-01-29T16:18:39.520Z,101032.65
2023-01-29T16:21:17.198Z,101006.29
2023-01-29T16:23:54.106Z,101017.91
2023-01-29T16:26:29.963Z,101016.65
2023-01-29T16:29:07.322Z,101010.59
2023-01-29T16:31:41.407Z,101010.21
2023-01-29T16:34:23.504Z,101012.00
2023-01-29T16:36:57.701Z,101013.98
2023-01-29T16:39:34.637Z,101008.52
2023-01-29T16:42:29.040Z,101006.27
2023-01-29T16:45:04.408Z,101000.70
2023-01-29T16:47:39.490Z,100997.89
2023-01-29T16:50:35.983Z,100978.40
2023-01-29T16:53:19.141Z,100982.26
2023-01-29T16:55:53.776Z,100997.40
2023-01-29T16:58:28.449Z,100993.45
2023-01-29T17:01:04.397Z,100997.13
2023-01-29T17:03:39.139Z,100986.03
2023-01-29T17:06:21.020Z,100992.23
2023-01-29T17:08:54.805Z,100974.55
2023-01-29T17:11:37.770Z,100983.58
2023-01-29T17:14:11.393Z,100989.61
2023-01-29T17:16:55.819Z,100984.06
2023-01-29T17:19:30.186Z,100986.09
2023-01-29T17:22:05.596Z,100986.02
2023-01-29T17:24:38.234Z,100986.76
2023-01-29T17:27:18.558Z,100985.42
2023-01-29T17:29:52.709Z,100980.88
2023-01-29T17:32:44.748Z,100980.92
2023-01-29T17:35:21.041Z,100980.08
2023-01-29T17:37:53.874Z,100975.95
2023-01-29T17:40:38.300Z,100977.81
2023-01-29T17:43:11.884Z,100973.05
2023-01-29T17:45:45.750Z,100972.66
2023-01-29T17:48:22.081Z,100972.41
2023-01-29T17:50:56.649Z,100964.74
2023-01-29T17:53:43.336Z,100959.98
2023-01-29T17:56:20.804Z,100963.30
2023-01-29T17:58:53.685Z,100963.91
2023-01-29T18:01:26.384Z,100957.82
2023-01-29T18:03:59.555Z,100945.59
2023-01-29T18:06:33.023Z,100945.80
2023-01-29T18:09:05.783Z,100946.61
2023-01-29T18:11:38.625Z,100951.46
2023-01-29T18:14:14.268Z,100953.30
2023-01-29T18:16:48.385Z,100953.82
2023-01-29T18:19:23.754Z,100934.94
2023-01-29T18:21:56.831Z,100945.44
2023-01-29T18:24:30.120Z,100937.96
2023-01-29T18:27:02.984Z,100936.36
2023-01-29T18:29:36.270Z,100932.21
2023-01-29T18:32:11.905Z,100924.79
2023-01-29T18:34:46.757Z,100919.04
2023-01-29T18:48:15.795Z,100877.30
2023-01-29T18:50:48.320Z,100877.48
2023-01-29T18:53:21.067Z,100877.09
2023-01-29T18:56:02.639Z,100881.32
2023-01-29T18:58:37.282Z,100880.12
2023-01-29T19:01:10.089Z,100877.70
2023-01-29T19:03:43.630Z,100869.30
2023-01-29T19:06:16.568Z,100872.09
2023-01-29T19:08:49.269Z,100866.09
2023-01-29T19:11:22.153Z,100850.14
2023-01-29T19:13:54.910Z,100866.09
2023-01-29T19:16:27.534Z,100861.35
2023-01-29T19:19:00.024Z,100855.36
2023-01-29T19:21:36.034Z,100860.61
2023-01-29T19:24:11.968Z,100855.69
2023-01-29T19:26:44.585Z,100849.00
2023-01-29T19:29:17.787Z,100850.67
2023-01-29T19:31:51.035Z,100848.27
2023-01-29T19:34:23.953Z,100851.75
2023-01-29T19:36:56.969Z,100851.14
2023-01-29T19:39:33.817Z,100846.11
2023-01-29T19:42:06.696Z,100838.96
2023-01-29T19:44:39.983Z,100840.92
2023-01-29T19:47:13.288Z,100835.15
2023-01-29T19:49:46.066Z,100835.30
2023-01-29T19:52:41.400Z,100830.83
2023-01-29T19:55:22.925Z,100807.67
2023-01-29T19:57:59.005Z,100826.36
2023-01-29T20:00:32.137Z,100823.77
2023-01-29T20:03:04.808Z,100821.73
2023-01-29T20:05:39.368Z,100818.35
2023-01-29T20:08:12.132Z,100817.26
2023-01-29T20:10:47.900Z,100808.80
2023-01-29T20:13:20.492Z,100801.48
2023-01-29T20:15:54.344Z,100796.16
2023-01-29T20:18:27.291Z,100802.02
2023-01-29T20:21:00.665Z,100797.25
2023-01-29T20:23:38.120Z,100801.97
2023-01-29T20:26:13.666Z,100796.32
2023-01-29T20:28:48.632Z,100791.38
2023-01-29T20:31:21.439Z,100793.28
2023-01-29T20:33:54.728Z,100787.70
2023-01-29T20:36:27.408Z,100778.20
2023-01-29T20:39:00.686Z,100769.67
2023-01-29T20:41:34.027Z,100760.47
2023-01-29T20:44:07.226Z,100761.73
2023-01-29T20:46:40.139Z,100762.66
2023-01-29T20:49:13.624Z,100757.67
2023-01-29T20:51:46.917Z,100746.58
2023-01-29T20:54:19.963Z,100744.14
2023-01-29T20:56:53.072Z,100738.69
2023-01-29T20:59:26.475Z,100715.62
2023-01-29T21:01:59.344Z,100709.52
2023-01-29T21:04:32.776Z,100708.77
2023-01-29T21:07:06.377Z,100709.15
2023-01-29T21:09:40.874Z,100710.69
2023-01-29T21:12:14.555Z,100701.39
2023-01-29T21:14:47.682Z,100695.61
2023-01-29T21:17:20.542Z,100676.69
2023-01-29T21:19:53.207Z,100689.77
2023-01-29T21:22:25.906Z,100688.94
2023-01-29T21:24:58.507Z,100684.84
2023-01-29T21:27:31.201Z,100684.84
2023-01-29T21:30:03.896Z,100679.88
2023-01-29T21:32:36.598Z,100681.10
2023-01-29T21:35:11.189Z,100658.77
2023-01-29T21:37:43.611Z,100667.85
2023-01-29T21:40:17.167Z,100665.84
2023-01-29T21:43:07.412Z,100657.27
2023-01-29T21:45:40.627Z,100654.48
2023-01-29T21:48:14.128Z,100648.80
2023-01-29T21:50:48.827Z,100647.06
2023-01-29T21:53:19.650Z,100635.24
2023-01-29T21:55:52.118Z,100631.08
2023-01-29T21:58:24.859Z,100625.92
2023-01-29T22:00:57.452Z,100625.50
2023-01-29T22:03:49.960Z,100619.54
2023-01-29T22:06:22.643Z,100617.75
2023-01-29T22:08:55.209Z,100598.13
2023-01-29T22:11:28.547Z,100600.70
2023-01-29T22:14:01.158Z,100593.15
2023-01-29T22:16:33.699Z,100605.99
2023-01-29T22:19:06.754Z,100598.32
2023-01-29T22:21:39.258Z,100592.91
2023-01-29T22:24:12.521Z,100587.61
2023-01-29T22:26:47.334Z,100580.85
2023-01-29T22:29:21.210Z,100567.66
2023-01-29T22:31:54.141Z,100560.27
2023-01-29T22:34:26.592Z,100535.52
2023-01-29T22:36:59.148Z,100544.75
2023-01-29T22:39:31.685Z,100537.48
2023-01-29T22:42:04.499Z,100531.55
2023-01-29T22:44:38.010Z,100524.54
2023-01-29T22:47:10.451Z,100501.37
2023-01-29T22:49:45.660Z,100520.61
2023-01-29T22:52:21.549Z,100511.48
2023-01-29T22:54:54.038Z,100501.46
2023-01-29T22:57:26.527Z,100479.56
2023-01-29T22:59:58.863Z,100489.19
2023-01-29T23:02:31.722Z,100483.75
2023-01-29T23:05:04.524Z,100476.80
2023-01-29T23:07:37.030Z,100467.15
2023-01-29T23:10:11.466Z,100459.00
2023-01-29T23:12:44.422Z,100456.59
2023-01-29T23:15:18.145Z,100453.52
2023-01-29T23:17:50.704Z,100449.00
2023-01-29T23:20:23.347Z,100445.06
2023-01-29T23:22:55.744Z,100441.05
2023-01-29T23:25:48.233Z,100429.93
2023-01-29T23:28:20.736Z,100421.05
2023-01-29T23:30:53.193Z,100415.51
2023-01-29T23:33:25.931Z,100399.30
2023-01-29T23:35:58.235Z,100400.45
2023-01-29T23:38:30.609Z,100395.17
2023-01-29T23:41:03.173Z,100394.09
2023-01-29T23:43:36.097Z,100391.36
2023-01-29T23:46:09.659Z,100390.65
2023-01-29T23:48:42.058Z,100387.24
2023-01-29T23:51:14.501Z,100362.06
2023-01-29T23:53:49.464Z,100370.61
2023-01-29T23:56:22.177Z,100372.99
2023-01-29T23:58:57.877Z,100368.18
